This is the latest recevied weather packets stored in our database for station/object KF0PEC-15. If no packets are shown the sender has not sent any weather packets the latest 10 day(s).
| Time | Temp. | Humidity | Pressure | Rain* | Wind** | Luminosity | Snow |
|---|---|---|---|---|---|---|---|
| 1777773365 | 15° C | 27% | 1015.8 hPa | 0 mm | - | 210 W/m² | - |
| 1777772810 | 15.56° C | 25% | 1015.2 hPa | 0 mm | - | 515 W/m² | - |
| 1777772295 | 15.56° C | 25% | 1014.9 hPa | 0 mm | - | 924 W/m² | - |
| 1777771740 | 16.11° C | 24% | 1014.7 hPa | 0 mm | - | 130 W/m² | - |
| 1777771240 | 16.11° C | 24% | 1014.5 hPa | 0 mm | - | 148 W/m² | - |
| 1777770655 | 16.11° C | 24% | 1014.2 hPa | 0 mm | - | 180 W/m² | - |
| 1777770090 | 16.67° C | 24% | 1014 hPa | 0 mm | - | 208 W/m² | - |
| 1777769515 | 16.67° C | 24% | 1013.8 hPa | 0 mm | - | 229 W/m² | - |
| 1777768945 | 17.22° C | 23% | 1013.7 hPa | 0 mm | - | 317 W/m² | - |
| 1777768365 | 17.22° C | 24% | 1013.6 hPa | 0 mm | - | 654 W/m² | - |
| 1777767770 | 17.22° C | 24% | 1013.7 hPa | 0 mm | - | 325 W/m² | - |
| 1777767190 | 17.22° C | 24% | 1013.5 hPa | 0 mm | - | 295 W/m² | - |
| 1777766675 | 17.78° C | 24% | 1013.4 hPa | 0 mm | - | 591 W/m² | - |
| 1777766185 | 17.78° C | 25% | 1013.5 hPa | 0 mm | - | 362 W/m² | - |
| 1777765675 | 17.78° C | 24% | 1013.5 hPa | 0 mm | - | 382 W/m² | - |
| 1777765150 | 17.78° C | 24% | 1013.5 hPa | 0 mm | - | 803 W/m² | - |
| 1777764572 | 17.78° C | 24% | 1013.6 hPa | 0 mm | - | 149 W/m² | - |
| 1777764045 | 18.33° C | 24% | 1013.3 hPa | 0 mm | - | 132 W/m² | - |
| 1777763535 | 18.33° C | 24% | 1013.5 hPa | 0 mm | - | 194 W/m² | - |
| 1777762937 | 18.33° C | 24% | 1013.3 hPa | 0 mm | - | 130 W/m² | - |
| 1777762457 | 18.33° C | 24% | 1013.2 hPa | 0 mm | - | 133 W/m² | - |
| 1777761930 | 18.89° C | 24% | 1013.1 hPa | 0 mm | - | 334 W/m² | - |
| 1777761387 | 18.33° C | 24% | 1013.4 hPa | 0 mm | - | 358 W/m² | - |
| 1777760850 | 18.89° C | 24% | 1013.4 hPa | 0 mm | - | 306 W/m² | - |
| 1777760315 | 18.33° C | 25% | 1013.7 hPa | 0 mm | - | 460 W/m² | - |
* Rain latest hour (hover to see other rain measurements)
** Current wind speed in m/s (hover to see current wind gust speed)